DAL2411 KATL-KDFW
Flight info
| Callsign | DAL2411 |
|---|---|
| Flight time | 1h 55m |
| Altitude | 38000 |
| Route | ATL2 STNGA MHZ CQY3 |
| Aircraft | L101/H-SDFI/S |
Departure
| Time | 2026-05-06 18:39 |
|---|---|
| Airport | Hartsfield Jackson Atlanta International Airport (KATL) |
Arrival
| Time | 2026-05-06 20:34 |
|---|---|
| Airport | Dallas Fort Worth International Airport (KDFW) |
| Time | Latitude | Longitude | Altitude | Speed | Heading |
|---|---|---|---|---|---|
| 2026-05-06 17:56 | 33.63883 | -84.43865 | 1011 ft | 0 kts | 269° |
| 2026-05-06 18:26 | 33.63883 | -84.43852 | 1011 ft | 3 kts | 265° |
| 2026-05-06 18:27 | 33.63887 | -84.43821 | 1011 ft | 3 kts | 249° |
| 2026-05-06 18:27 | 33.63900 | -84.43795 | 1011 ft | 3 kts | 214° |
| 2026-05-06 18:27 | 33.63915 | -84.43787 | 1011 ft | 1 kts | 179° |
| 2026-05-06 18:32 | 33.63909 | -84.43787 | 1011 ft | 3 kts | 179° |
| 2026-05-06 18:32 | 33.63874 | -84.43787 | 1011 ft | 7 kts | 180° |
| 2026-05-06 18:33 | 33.63809 | -84.43786 | 1011 ft | 11 kts | 180° |
| 2026-05-06 18:33 | 33.63724 | -84.43787 | 1011 ft | 13 kts | 180° |
| 2026-05-06 18:33 | 33.63662 | -84.43720 | 1011 ft | 14 kts | 97° |
| 2026-05-06 18:33 | 33.63663 | -84.43591 | 1011 ft | 17 kts | 89° |
| 2026-05-06 18:34 | 33.63663 | -84.43432 | 1011 ft | 21 kts | 89° |
| 2026-05-06 18:34 | 33.63664 | -84.43248 | 1011 ft | 24 kts | 91° |
| 2026-05-06 18:34 | 33.63664 | -84.43054 | 1011 ft | 16 kts | 89° |
| 2026-05-06 18:34 | 33.63664 | -84.42905 | 1011 ft | 20 kts | 90° |
| 2026-05-06 18:35 | 33.63660 | -84.42737 | 1011 ft | 20 kts | 96° |
| 2026-05-06 18:35 | 33.63655 | -84.42584 | 1012 ft | 15 kts | 89° |
| 2026-05-06 18:35 | 33.63656 | -84.42446 | 1012 ft | 18 kts | 91° |
| 2026-05-06 18:35 | 33.63654 | -84.42282 | 1012 ft | 21 kts | 90° |
| 2026-05-06 18:36 | 33.63655 | -84.42094 | 1012 ft | 24 kts | 89° |
| 2026-05-06 18:36 | 33.63661 | -84.41920 | 1011 ft | 19 kts | 89° |
| 2026-05-06 18:36 | 33.63657 | -84.41755 | 1011 ft | 21 kts | 92° |
| 2026-05-06 18:36 | 33.63655 | -84.41571 | 1011 ft | 24 kts | 91° |
| 2026-05-06 18:37 | 33.63654 | -84.41363 | 1011 ft | 26 kts | 90° |
| 2026-05-06 18:37 | 33.63654 | -84.41217 | 1011 ft | 26 kts | 90° |
| 2026-05-06 18:37 | 33.63657 | -84.40968 | 1011 ft | 16 kts | 87° |
| 2026-05-06 18:37 | 33.63629 | -84.40912 | 1011 ft | 8 kts | 163° |
| 2026-05-06 18:38 | 33.63561 | -84.40905 | 1011 ft | 11 kts | 179° |
| 2026-05-06 18:38 | 33.63488 | -84.40920 | 1012 ft | 10 kts | 222° |
| 2026-05-06 18:38 | 33.63471 | -84.41012 | 1011 ft | 18 kts | 271° |
| 2026-05-06 18:38 | 33.63471 | -84.41415 | 1011 ft | 90 kts | 271° |
| 2026-05-06 18:39 | 33.63476 | -84.42518 | 1112 ft | 163 kts | 266° |
| 2026-05-06 18:39 | 33.63506 | -84.43910 | 2305 ft | 166 kts | 267° |
| 2026-05-06 18:39 | 33.63515 | -84.45304 | 3126 ft | 167 kts | 263° |
| 2026-05-06 18:40 | 33.62820 | -84.48069 | 3977 ft | 187 kts | 248° |
| 2026-05-06 18:40 | 33.62319 | -84.49609 | 4115 ft | 209 kts | 248° |
| 2026-05-06 18:40 | 33.61803 | -84.51303 | 4255 ft | 231 kts | 252° |
| 2026-05-06 18:40 | 33.61453 | -84.53320 | 4288 ft | 262 kts | 258° |
| 2026-05-06 18:41 | 33.61134 | -84.55539 | 4741 ft | 274 kts | 259° |
| 2026-05-06 18:41 | 33.60802 | -84.57813 | 5291 ft | 280 kts | 259° |
| 2026-05-06 18:41 | 33.60457 | -84.60104 | 6062 ft | 277 kts | 259° |
| 2026-05-06 18:41 | 33.60111 | -84.62345 | 7018 ft | 269 kts | 259° |
| 2026-05-06 18:42 | 33.59779 | -84.64481 | 7999 ft | 252 kts | 259° |
| 2026-05-06 18:42 | 33.59458 | -84.66537 | 8753 ft | 244 kts | 259° |
| 2026-05-06 18:42 | 33.59158 | -84.68446 | 9808 ft | 226 kts | 259° |
| 2026-05-06 18:42 | 33.58866 | -84.70310 | 10256 ft | 232 kts | 259° |
| 2026-05-06 18:43 | 33.58550 | -84.72315 | 10090 ft | 261 kts | 259° |
| 2026-05-06 18:43 | 33.58192 | -84.74573 | 10435 ft | 285 kts | 259° |
| 2026-05-06 18:43 | 33.57813 | -84.76957 | 11062 ft | 297 kts | 259° |
| 2026-05-06 18:43 | 33.57417 | -84.79448 | 11623 ft | 312 kts | 259° |
| 2026-05-06 18:44 | 33.57005 | -84.82037 | 12073 ft | 328 kts | 259° |
| 2026-05-06 18:44 | 33.56565 | -84.84787 | 12583 ft | 342 kts | 259° |
| 2026-05-06 18:44 | 33.56113 | -84.87622 | 13321 ft | 348 kts | 259° |
| 2026-05-06 18:44 | 33.55661 | -84.90464 | 14344 ft | 345 kts | 259° |
| 2026-05-06 18:45 | 33.55215 | -84.93258 | 15558 ft | 335 kts | 259° |
| 2026-05-06 18:45 | 33.54925 | -84.95073 | 16253 ft | 335 kts | 259° |
| 2026-05-06 18:45 | 33.54335 | -84.98772 | 17106 ft | 349 kts | 259° |
| 2026-05-06 18:45 | 33.54023 | -85.00728 | 17471 ft | 357 kts | 259° |
| 2026-05-06 18:46 | 33.53393 | -85.04674 | 18372 ft | 368 kts | 259° |
| 2026-05-06 18:46 | 33.53067 | -85.06710 | 18973 ft | 368 kts | 259° |
| 2026-05-06 18:46 | 33.52434 | -85.10641 | 20523 ft | 357 kts | 260° |
| 2026-05-06 18:46 | 33.52117 | -85.12603 | 21358 ft | 354 kts | 260° |
| 2026-05-06 18:47 | 33.51647 | -85.15510 | 22185 ft | 359 kts | 261° |
| 2026-05-06 18:47 | 33.51168 | -85.18499 | 22657 ft | 373 kts | 261° |
| 2026-05-06 18:47 | 33.50669 | -85.21621 | 23130 ft | 387 kts | 261° |
| 2026-05-06 18:47 | 33.50166 | -85.24780 | 23848 ft | 393 kts | 261° |
| 2026-05-06 18:48 | 33.49650 | -85.27997 | 24819 ft | 390 kts | 261° |
| 2026-05-06 18:48 | 33.49140 | -85.31152 | 26038 ft | 382 kts | 261° |
| 2026-05-06 18:48 | 33.48633 | -85.34269 | 26989 ft | 382 kts | 261° |
| 2026-05-06 18:48 | 33.48119 | -85.37437 | 27438 ft | 394 kts | 261° |
| 2026-05-06 18:49 | 33.47585 | -85.40740 | 27581 ft | 413 kts | 261° |
| 2026-05-06 18:49 | 33.47031 | -85.44175 | 27845 ft | 427 kts | 261° |
| 2026-05-06 18:49 | 33.46464 | -85.47680 | 28542 ft | 429 kts | 261° |
| 2026-05-06 18:49 | 33.45894 | -85.51162 | 29747 ft | 421 kts | 261° |
| 2026-05-06 18:50 | 33.45334 | -85.54548 | 31042 ft | 408 kts | 261° |
| 2026-05-06 18:50 | 33.44782 | -85.57867 | 31907 ft | 406 kts | 261° |
| 2026-05-06 18:50 | 33.44229 | -85.61196 | 32496 ft | 408 kts | 261° |
| 2026-05-06 18:50 | 33.43684 | -85.64481 | 33223 ft | 406 kts | 261° |
| 2026-05-06 18:51 | 33.43138 | -85.67759 | 34182 ft | 397 kts | 261° |
| 2026-05-06 18:51 | 33.42605 | -85.70938 | 35303 ft | 380 kts | 261° |
| 2026-05-06 18:51 | 33.42095 | -85.73957 | 36555 ft | 361 kts | 261° |
| 2026-05-06 18:51 | 33.41603 | -85.76852 | 37541 ft | 352 kts | 261° |
| 2026-05-06 18:52 | 33.41112 | -85.79771 | 37837 ft | 364 kts | 262° |
| 2026-05-06 18:52 | 33.40610 | -85.82793 | 37940 ft | 371 kts | 261° |
| 2026-05-06 18:52 | 33.40107 | -85.85812 | 37967 ft | 370 kts | 261° |
| 2026-05-06 18:53 | 33.39085 | -85.91923 | 37999 ft | 380 kts | 261° |
| 2026-05-06 18:53 | 33.38038 | -85.98161 | 37995 ft | 386 kts | 261° |
| 2026-05-06 18:54 | 33.36978 | -86.04438 | 37992 ft | 384 kts | 261° |
| 2026-05-06 18:54 | 33.35917 | -86.10685 | 37990 ft | 383 kts | 261° |
| 2026-05-06 18:55 | 33.34853 | -86.16921 | 38014 ft | 383 kts | 261° |
| 2026-05-06 18:55 | 33.33784 | -86.23157 | 38009 ft | 381 kts | 261° |
| 2026-05-06 18:56 | 33.32724 | -86.29310 | 38045 ft | 380 kts | 261° |
| 2026-05-06 18:56 | 33.31646 | -86.35547 | 38044 ft | 380 kts | 261° |
| 2026-05-06 18:57 | 33.30580 | -86.41696 | 38037 ft | 380 kts | 261° |
| 2026-05-06 18:57 | 33.29503 | -86.47887 | 38035 ft | 380 kts | 261° |
| 2026-05-06 18:58 | 33.28422 | -86.54074 | 38034 ft | 380 kts | 261° |
| 2026-05-06 18:58 | 33.27340 | -86.60256 | 38018 ft | 379 kts | 260° |
| 2026-05-06 18:59 | 33.26250 | -86.66426 | 38016 ft | 378 kts | 261° |
| 2026-05-06 18:59 | 33.25167 | -86.72546 | 38016 ft | 378 kts | 260° |
| 2026-05-06 19:00 | 33.24076 | -86.78694 | 38013 ft | 379 kts | 260° |
| 2026-05-06 19:00 | 33.22978 | -86.84847 | 38019 ft | 378 kts | 260° |
| 2026-05-06 19:01 | 33.21874 | -86.90997 | 38037 ft | 378 kts | 260° |
| 2026-05-06 19:01 | 33.20775 | -86.97136 | 38024 ft | 378 kts | 259° |
| 2026-05-06 19:02 | 33.19669 | -87.03273 | 38012 ft | 378 kts | 259° |
| 2026-05-06 19:02 | 33.18561 | -87.09365 | 38003 ft | 378 kts | 259° |
| 2026-05-06 19:03 | 33.17439 | -87.15495 | 37988 ft | 378 kts | 259° |
| 2026-05-06 19:03 | 33.16314 | -87.21619 | 37963 ft | 378 kts | 259° |
| 2026-05-06 19:04 | 33.15180 | -87.27756 | 37963 ft | 378 kts | 259° |
| 2026-05-06 19:04 | 33.14044 | -87.33874 | 37952 ft | 378 kts | 259° |
| 2026-05-06 19:05 | 33.12907 | -87.39974 | 37935 ft | 379 kts | 259° |
| 2026-05-06 19:05 | 33.11647 | -87.46129 | 37970 ft | 384 kts | 256° |
| 2026-05-06 19:06 | 33.10127 | -87.52261 | 37964 ft | 385 kts | 256° |
| 2026-05-06 19:06 | 33.08640 | -87.58396 | 37966 ft | 385 kts | 256° |
| 2026-05-06 19:07 | 33.07141 | -87.64526 | 37960 ft | 385 kts | 256° |
| 2026-05-06 19:07 | 33.05622 | -87.70662 | 37967 ft | 385 kts | 256° |
| 2026-05-06 19:08 | 33.04104 | -87.76786 | 37962 ft | 385 kts | 256° |
| 2026-05-06 19:08 | 33.02591 | -87.82865 | 37966 ft | 385 kts | 256° |
| 2026-05-06 19:09 | 33.01068 | -87.88974 | 37964 ft | 385 kts | 256° |
| 2026-05-06 19:09 | 32.99537 | -87.95097 | 37964 ft | 385 kts | 256° |
| 2026-05-06 19:10 | 32.98008 | -88.01202 | 37963 ft | 385 kts | 255° |
| 2026-05-06 19:10 | 32.96475 | -88.07308 | 37964 ft | 385 kts | 255° |
| 2026-05-06 19:11 | 32.94950 | -88.13378 | 37954 ft | 385 kts | 255° |
| 2026-05-06 19:11 | 32.93410 | -88.19477 | 37960 ft | 385 kts | 255° |
| 2026-05-06 19:12 | 32.91866 | -88.25583 | 37962 ft | 385 kts | 255° |
| 2026-05-06 19:12 | 32.90319 | -88.31685 | 37958 ft | 385 kts | 255° |
| 2026-05-06 19:13 | 32.88771 | -88.37783 | 37948 ft | 385 kts | 255° |
| 2026-05-06 19:13 | 32.87221 | -88.43876 | 37948 ft | 385 kts | 255° |
| 2026-05-06 19:14 | 32.85665 | -88.49979 | 37956 ft | 386 kts | 254° |
| 2026-05-06 19:14 | 32.84097 | -88.56112 | 37979 ft | 388 kts | 254° |
| 2026-05-06 19:15 | 32.82523 | -88.62250 | 37989 ft | 388 kts | 254° |
| 2026-05-06 19:15 | 32.80958 | -88.68344 | 38002 ft | 388 kts | 254° |
| 2026-05-06 19:16 | 32.79377 | -88.74488 | 38012 ft | 388 kts | 254° |
| 2026-05-06 19:16 | 32.77797 | -88.80613 | 38019 ft | 388 kts | 254° |
| 2026-05-06 19:17 | 32.76213 | -88.86739 | 38027 ft | 388 kts | 254° |
| 2026-05-06 19:17 | 32.74628 | -88.92856 | 38018 ft | 387 kts | 254° |
| 2026-05-06 19:18 | 32.73039 | -88.98971 | 37996 ft | 387 kts | 254° |
| 2026-05-06 19:18 | 32.71450 | -89.05078 | 37984 ft | 387 kts | 254° |
| 2026-05-06 19:19 | 32.69857 | -89.11182 | 37975 ft | 387 kts | 254° |
| 2026-05-06 19:19 | 32.68260 | -89.17290 | 37968 ft | 387 kts | 253° |
| 2026-05-06 19:20 | 32.66661 | -89.23392 | 37972 ft | 387 kts | 253° |
| 2026-05-06 19:20 | 32.65060 | -89.29495 | 37977 ft | 387 kts | 253° |
| 2026-05-06 19:21 | 32.63465 | -89.35552 | 37965 ft | 387 kts | 253° |
| 2026-05-06 19:21 | 32.61856 | -89.41651 | 37966 ft | 387 kts | 253° |
| 2026-05-06 19:22 | 32.60243 | -89.47753 | 37968 ft | 390 kts | 253° |
| 2026-05-06 19:22 | 32.58619 | -89.53888 | 37969 ft | 390 kts | 253° |
| 2026-05-06 19:23 | 32.56986 | -89.60042 | 37979 ft | 391 kts | 253° |
| 2026-05-06 19:23 | 32.55351 | -89.66185 | 37980 ft | 391 kts | 253° |
| 2026-05-06 19:24 | 32.53723 | -89.72290 | 37977 ft | 391 kts | 253° |
| 2026-05-06 19:24 | 32.52084 | -89.78423 | 37980 ft | 391 kts | 253° |
| 2026-05-06 19:25 | 32.50438 | -89.84574 | 37987 ft | 391 kts | 253° |
| 2026-05-06 19:25 | 32.48789 | -89.90715 | 37988 ft | 391 kts | 253° |
| 2026-05-06 19:26 | 32.47141 | -89.96838 | 37982 ft | 391 kts | 253° |
| 2026-05-06 19:26 | 32.45541 | -90.02994 | 37941 ft | 389 kts | 258° |
| 2026-05-06 19:27 | 32.44661 | -90.09254 | 37954 ft | 388 kts | 259° |
| 2026-05-06 19:27 | 32.43949 | -90.15588 | 37950 ft | 387 kts | 261° |
| 2026-05-06 19:28 | 32.43626 | -90.21954 | 37955 ft | 390 kts | 271° |
| 2026-05-06 19:28 | 32.44168 | -90.28369 | 37964 ft | 392 kts | 271° |
| 2026-05-06 19:29 | 32.44472 | -90.34792 | 37972 ft | 391 kts | 269° |
| 2026-05-06 19:29 | 32.44673 | -90.41226 | 37979 ft | 391 kts | 269° |
| 2026-05-06 19:30 | 32.44919 | -90.47652 | 37982 ft | 391 kts | 270° |
| 2026-05-06 19:30 | 32.45188 | -90.54079 | 37971 ft | 391 kts | 270° |
| 2026-05-06 19:31 | 32.45459 | -90.60506 | 37963 ft | 391 kts | 270° |
| 2026-05-06 19:31 | 32.45862 | -90.70160 | 37956 ft | 391 kts | 270° |
| 2026-05-06 19:32 | 32.46129 | -90.76547 | 37997 ft | 391 kts | 270° |
| 2026-05-06 19:32 | 32.46397 | -90.82978 | 37968 ft | 390 kts | 269° |
| 2026-05-06 19:33 | 32.46617 | -90.88315 | 37973 ft | 390 kts | 269° |
| 2026-05-06 19:33 | 32.46928 | -90.95787 | 37940 ft | 390 kts | 269° |
| 2026-05-06 19:34 | 32.47154 | -91.01161 | 37941 ft | 390 kts | 269° |
| 2026-05-06 19:34 | 32.47426 | -91.07572 | 37949 ft | 390 kts | 269° |
| 2026-05-06 19:35 | 32.47698 | -91.13955 | 37947 ft | 390 kts | 269° |
| 2026-05-06 19:35 | 32.47970 | -91.20374 | 37953 ft | 390 kts | 269° |
| 2026-05-06 19:36 | 32.48238 | -91.26797 | 37904 ft | 390 kts | 269° |
| 2026-05-06 19:36 | 32.48514 | -91.33224 | 37910 ft | 390 kts | 269° |
| 2026-05-06 19:37 | 32.48590 | -91.39629 | 37922 ft | 389 kts | 266° |
| 2026-05-06 19:37 | 32.48591 | -91.46042 | 37933 ft | 389 kts | 267° |
| 2026-05-06 19:38 | 32.48738 | -91.52465 | 37947 ft | 390 kts | 269° |
| 2026-05-06 19:38 | 32.49027 | -91.58892 | 37950 ft | 391 kts | 270° |
| 2026-05-06 19:39 | 32.49398 | -91.65337 | 37952 ft | 392 kts | 270° |
| 2026-05-06 19:39 | 32.49797 | -91.71781 | 37950 ft | 392 kts | 270° |
| 2026-05-06 19:40 | 32.50190 | -91.78181 | 37950 ft | 392 kts | 270° |
| 2026-05-06 19:40 | 32.50574 | -91.84616 | 37947 ft | 392 kts | 270° |
| 2026-05-06 19:41 | 32.50952 | -91.91063 | 38002 ft | 392 kts | 270° |
| 2026-05-06 19:41 | 32.51284 | -91.97473 | 37970 ft | 386 kts | 269° |
| 2026-05-06 19:42 | 32.51685 | -92.03804 | 37980 ft | 385 kts | 270° |
| 2026-05-06 19:42 | 32.51950 | -92.10128 | 37981 ft | 382 kts | 265° |
| 2026-05-06 19:43 | 32.51199 | -92.16307 | 37956 ft | 379 kts | 252° |
| 2026-05-06 19:43 | 32.49905 | -92.22344 | 37972 ft | 379 kts | 261° |
| 2026-05-06 19:44 | 32.49493 | -92.28589 | 37967 ft | 381 kts | 264° |
| 2026-05-06 19:44 | 32.49129 | -92.34806 | 37948 ft | 379 kts | 262° |
| 2026-05-06 19:45 | 32.48625 | -92.41018 | 37943 ft | 379 kts | 262° |
| 2026-05-06 19:45 | 32.48091 | -92.47233 | 37942 ft | 379 kts | 262° |
| 2026-05-06 19:46 | 32.47570 | -92.53449 | 37942 ft | 379 kts | 262° |
| 2026-05-06 19:46 | 32.47060 | -92.59666 | 37942 ft | 379 kts | 262° |
| 2026-05-06 19:47 | 32.46554 | -92.65878 | 37942 ft | 379 kts | 262° |
| 2026-05-06 19:47 | 32.46051 | -92.72047 | 37947 ft | 377 kts | 262° |
| 2026-05-06 19:48 | 32.45548 | -92.78231 | 37942 ft | 376 kts | 262° |
| 2026-05-06 19:48 | 32.45047 | -92.84403 | 37953 ft | 376 kts | 262° |
| 2026-05-06 19:49 | 32.44527 | -92.90572 | 37953 ft | 376 kts | 260° |
| 2026-05-06 19:49 | 32.43815 | -92.96707 | 37959 ft | 376 kts | 260° |
| 2026-05-06 19:50 | 32.43180 | -93.02850 | 37957 ft | 376 kts | 261° |
| 2026-05-06 19:50 | 32.42686 | -93.09025 | 37950 ft | 376 kts | 262° |
| 2026-05-06 19:51 | 32.42304 | -93.15155 | 37969 ft | 376 kts | 263° |
| 2026-05-06 19:51 | 32.41978 | -93.21341 | 37970 ft | 376 kts | 263° |
| 2026-05-06 19:52 | 32.41672 | -93.27526 | 37970 ft | 376 kts | 263° |
| 2026-05-06 19:52 | 32.41366 | -93.33711 | 37957 ft | 376 kts | 263° |
| 2026-05-06 19:53 | 32.41054 | -93.39893 | 37945 ft | 376 kts | 263° |
| 2026-05-06 19:53 | 32.40733 | -93.46076 | 37952 ft | 376 kts | 263° |
| 2026-05-06 19:54 | 32.40360 | -93.52198 | 37955 ft | 376 kts | 263° |
| 2026-05-06 19:54 | 32.40054 | -93.58381 | 37952 ft | 376 kts | 264° |
| 2026-05-06 19:55 | 32.39813 | -93.64565 | 37950 ft | 376 kts | 264° |
| 2026-05-06 19:55 | 32.39469 | -93.70739 | 37951 ft | 376 kts | 263° |
| 2026-05-06 19:56 | 32.39173 | -93.76921 | 37942 ft | 376 kts | 264° |
| 2026-05-06 19:56 | 32.39011 | -93.83116 | 37965 ft | 376 kts | 266° |
| 2026-05-06 19:57 | 32.38979 | -93.89282 | 37949 ft | 374 kts | 266° |
| 2026-05-06 19:57 | 32.39041 | -93.95447 | 37951 ft | 375 kts | 267° |
| 2026-05-06 19:58 | 32.39170 | -94.01616 | 37948 ft | 375 kts | 268° |
| 2026-05-06 19:58 | 32.39345 | -94.07788 | 37951 ft | 375 kts | 268° |
| 2026-05-06 19:59 | 32.39547 | -94.13918 | 37954 ft | 375 kts | 268° |
| 2026-05-06 19:59 | 32.39767 | -94.20087 | 37976 ft | 375 kts | 268° |
| 2026-05-06 20:00 | 32.39998 | -94.26236 | 37953 ft | 373 kts | 268° |
| 2026-05-06 20:00 | 32.40228 | -94.32365 | 37948 ft | 373 kts | 268° |
| 2026-05-06 20:01 | 32.40455 | -94.38497 | 37947 ft | 373 kts | 268° |
| 2026-05-06 20:01 | 32.40681 | -94.44624 | 37960 ft | 373 kts | 268° |
| 2026-05-06 20:02 | 32.40905 | -94.50768 | 37948 ft | 373 kts | 268° |
| 2026-05-06 20:02 | 32.41128 | -94.56912 | 37943 ft | 373 kts | 268° |
| 2026-05-06 20:03 | 32.41334 | -94.63038 | 37946 ft | 372 kts | 268° |
| 2026-05-06 20:03 | 32.41487 | -94.69121 | 37971 ft | 372 kts | 268° |
| 2026-05-06 20:04 | 32.41628 | -94.75240 | 37957 ft | 370 kts | 263° |
| 2026-05-06 20:04 | 32.40871 | -94.81230 | 37969 ft | 368 kts | 256° |
| 2026-05-06 20:05 | 32.39774 | -94.87177 | 37487 ft | 374 kts | 258° |
| 2026-05-06 20:05 | 32.39305 | -94.90211 | 36891 ft | 374 kts | 258° |
| 2026-05-06 20:05 | 32.38860 | -94.93237 | 36319 ft | 372 kts | 258° |
| 2026-05-06 20:06 | 32.38404 | -94.96272 | 35799 ft | 380 kts | 258° |
| 2026-05-06 20:06 | 32.37908 | -94.99409 | 35259 ft | 393 kts | 257° |
| 2026-05-06 20:06 | 32.37389 | -95.02595 | 34733 ft | 391 kts | 257° |
| 2026-05-06 20:06 | 32.36877 | -95.05722 | 34226 ft | 384 kts | 257° |
| 2026-05-06 20:07 | 32.36372 | -95.08810 | 33709 ft | 381 kts | 257° |
| 2026-05-06 20:07 | 32.35873 | -95.11872 | 33142 ft | 378 kts | 257° |
| 2026-05-06 20:07 | 32.35382 | -95.14908 | 32576 ft | 375 kts | 257° |
| 2026-05-06 20:07 | 32.34897 | -95.17924 | 32047 ft | 372 kts | 257° |
| 2026-05-06 20:08 | 32.34416 | -95.20921 | 31524 ft | 368 kts | 257° |
| 2026-05-06 20:08 | 32.33943 | -95.23879 | 31012 ft | 365 kts | 257° |
| 2026-05-06 20:08 | 32.33480 | -95.26780 | 30550 ft | 362 kts | 257° |
| 2026-05-06 20:08 | 32.33015 | -95.29697 | 30091 ft | 359 kts | 257° |
| 2026-05-06 20:09 | 32.32551 | -95.32598 | 29555 ft | 357 kts | 257° |
| 2026-05-06 20:09 | 32.32092 | -95.35476 | 29028 ft | 355 kts | 257° |
| 2026-05-06 20:09 | 32.31635 | -95.38334 | 28498 ft | 353 kts | 257° |
| 2026-05-06 20:09 | 32.31180 | -95.41178 | 27982 ft | 350 kts | 257° |
| 2026-05-06 20:10 | 32.30727 | -95.44007 | 27476 ft | 348 kts | 257° |
| 2026-05-06 20:10 | 32.30279 | -95.46802 | 26978 ft | 345 kts | 257° |
| 2026-05-06 20:10 | 32.29840 | -95.49587 | 26487 ft | 343 kts | 257° |
| 2026-05-06 20:10 | 32.29382 | -95.52345 | 26007 ft | 341 kts | 256° |
| 2026-05-06 20:11 | 32.28917 | -95.55047 | 25542 ft | 339 kts | 256° |
| 2026-05-06 20:11 | 32.28451 | -95.57763 | 25084 ft | 337 kts | 256° |
| 2026-05-06 20:11 | 32.27994 | -95.60472 | 24618 ft | 334 kts | 256° |
| 2026-05-06 20:11 | 32.27550 | -95.63165 | 24168 ft | 333 kts | 256° |
| 2026-05-06 20:12 | 32.27116 | -95.65847 | 23713 ft | 331 kts | 257° |
| 2026-05-06 20:12 | 32.26691 | -95.68517 | 23233 ft | 330 kts | 257° |
| 2026-05-06 20:12 | 32.26275 | -95.71172 | 22713 ft | 328 kts | 257° |
| 2026-05-06 20:12 | 32.25865 | -95.73821 | 22192 ft | 327 kts | 257° |
| 2026-05-06 20:13 | 32.25460 | -95.76459 | 21692 ft | 326 kts | 257° |
| 2026-05-06 20:13 | 32.25059 | -95.79086 | 21195 ft | 324 kts | 257° |
| 2026-05-06 20:13 | 32.24662 | -95.81696 | 20706 ft | 322 kts | 257° |
| 2026-05-06 20:13 | 32.24267 | -95.84293 | 20209 ft | 320 kts | 256° |
| 2026-05-06 20:14 | 32.23876 | -95.86871 | 19756 ft | 318 kts | 256° |
| 2026-05-06 20:14 | 32.23487 | -95.89436 | 19283 ft | 317 kts | 256° |
| 2026-05-06 20:14 | 32.23097 | -95.91996 | 18811 ft | 315 kts | 256° |
| 2026-05-06 20:14 | 32.22712 | -95.94536 | 18367 ft | 314 kts | 256° |
| 2026-05-06 20:15 | 32.22327 | -95.97066 | 17891 ft | 312 kts | 256° |
| 2026-05-06 20:15 | 32.21945 | -95.99582 | 17435 ft | 311 kts | 256° |
| 2026-05-06 20:15 | 32.21556 | -96.02094 | 16990 ft | 310 kts | 256° |
| 2026-05-06 20:15 | 32.21158 | -96.04594 | 16514 ft | 309 kts | 256° |
| 2026-05-06 20:16 | 32.20758 | -96.07050 | 16096 ft | 308 kts | 256° |
| 2026-05-06 20:16 | 32.20367 | -96.09565 | 15659 ft | 308 kts | 260° |
| 2026-05-06 20:16 | 32.20433 | -96.12122 | 15205 ft | 317 kts | 276° |
| 2026-05-06 20:16 | 32.21150 | -96.14580 | 14784 ft | 328 kts | 291° |
| 2026-05-06 20:17 | 32.22458 | -96.16827 | 14387 ft | 336 kts | 302° |
| 2026-05-06 20:17 | 32.23888 | -96.18996 | 13999 ft | 332 kts | 296° |
| 2026-05-06 20:17 | 32.24992 | -96.21359 | 13504 ft | 326 kts | 288° |
| 2026-05-06 20:17 | 32.25868 | -96.23806 | 13007 ft | 322 kts | 285° |
| 2026-05-06 20:18 | 32.26629 | -96.26275 | 12714 ft | 319 kts | 283° |
| 2026-05-06 20:18 | 32.27339 | -96.28756 | 12470 ft | 318 kts | 283° |
| 2026-05-06 20:18 | 32.28025 | -96.31242 | 12227 ft | 317 kts | 284° |
| 2026-05-06 20:18 | 32.28941 | -96.33633 | 11959 ft | 323 kts | 296° |
| 2026-05-06 20:19 | 32.30313 | -96.35766 | 11710 ft | 329 kts | 306° |
| 2026-05-06 20:19 | 32.31912 | -96.37643 | 11470 ft | 316 kts | 311° |
| 2026-05-06 20:19 | 32.32974 | -96.38778 | 11309 ft | 304 kts | 312° |
| 2026-05-06 20:19 | 32.35002 | -96.40970 | 11071 ft | 292 kts | 310° |
| 2026-05-06 20:20 | 32.36454 | -96.42609 | 11001 ft | 292 kts | 310° |
| 2026-05-06 20:20 | 32.37909 | -96.44284 | 10965 ft | 292 kts | 309° |
| 2026-05-06 20:20 | 32.39325 | -96.45992 | 10946 ft | 288 kts | 302° |
| 2026-05-06 20:20 | 32.40347 | -96.47983 | 10947 ft | 280 kts | 290° |
| 2026-05-06 20:21 | 32.40865 | -96.49402 | 10958 ft | 278 kts | 286° |
| 2026-05-06 20:21 | 32.41517 | -96.51528 | 10956 ft | 277 kts | 284° |
| 2026-05-06 20:21 | 32.42118 | -96.53696 | 10876 ft | 277 kts | 283° |
| 2026-05-06 20:21 | 32.42690 | -96.55852 | 10426 ft | 271 kts | 283° |
| 2026-05-06 20:22 | 32.43237 | -96.57968 | 9942 ft | 267 kts | 283° |
| 2026-05-06 20:22 | 32.43764 | -96.60055 | 9432 ft | 262 kts | 283° |
| 2026-05-06 20:22 | 32.44274 | -96.62108 | 8928 ft | 258 kts | 282° |
| 2026-05-06 20:22 | 32.44772 | -96.64137 | 8454 ft | 258 kts | 283° |
| 2026-05-06 20:23 | 32.45258 | -96.66162 | 8161 ft | 255 kts | 282° |
| 2026-05-06 20:23 | 32.45743 | -96.68197 | 7941 ft | 257 kts | 282° |
| 2026-05-06 20:23 | 32.46229 | -96.70232 | 7686 ft | 257 kts | 282° |
| 2026-05-06 20:23 | 32.46711 | -96.72265 | 7448 ft | 256 kts | 282° |
| 2026-05-06 20:24 | 32.47188 | -96.74294 | 7217 ft | 255 kts | 283° |
| 2026-05-06 20:24 | 32.47657 | -96.76296 | 6972 ft | 255 kts | 282° |
| 2026-05-06 20:24 | 32.48131 | -96.78317 | 6741 ft | 255 kts | 282° |
| 2026-05-06 20:24 | 32.48611 | -96.80344 | 6561 ft | 255 kts | 282° |
| 2026-05-06 20:25 | 32.49091 | -96.82366 | 6329 ft | 255 kts | 283° |
| 2026-05-06 20:25 | 32.49554 | -96.84384 | 6105 ft | 253 kts | 283° |
| 2026-05-06 20:25 | 32.50009 | -96.86387 | 6050 ft | 250 kts | 282° |
| 2026-05-06 20:25 | 32.50450 | -96.88380 | 6023 ft | 251 kts | 282° |
| 2026-05-06 20:26 | 32.50900 | -96.90387 | 6029 ft | 251 kts | 282° |
| 2026-05-06 20:26 | 32.51406 | -96.92363 | 6005 ft | 253 kts | 290° |
| 2026-05-06 20:26 | 32.52259 | -96.94191 | 5999 ft | 256 kts | 305° |
| 2026-05-06 20:26 | 32.53569 | -96.95637 | 6008 ft | 260 kts | 318° |
| 2026-05-06 20:27 | 32.55043 | -96.96906 | 6012 ft | 262 kts | 321° |
| 2026-05-06 20:27 | 32.56538 | -96.98134 | 6002 ft | 261 kts | 319° |
| 2026-05-06 20:27 | 32.57932 | -96.99489 | 6006 ft | 260 kts | 315° |
| 2026-05-06 20:27 | 32.59284 | -97.00929 | 5981 ft | 261 kts | 313° |
| 2026-05-06 20:28 | 32.60565 | -97.02337 | 5813 ft | 247 kts | 313° |
| 2026-05-06 20:28 | 32.61965 | -97.03430 | 5593 ft | 243 kts | 339° |
| 2026-05-06 20:28 | 32.63613 | -97.03473 | 5499 ft | 231 kts | 12° |
| 2026-05-06 20:28 | 32.65028 | -97.02730 | 5290 ft | 216 kts | 14° |
| 2026-05-06 20:29 | 32.66480 | -97.02622 | 4921 ft | 202 kts | 349° |
| 2026-05-06 20:29 | 32.67867 | -97.02761 | 4716 ft | 201 kts | 353° |
| 2026-05-06 20:29 | 32.69266 | -97.02767 | 4321 ft | 198 kts | 357° |
| 2026-05-06 20:29 | 32.70621 | -97.02745 | 4009 ft | 190 kts | 358° |
| 2026-05-06 20:30 | 32.71898 | -97.02737 | 3776 ft | 187 kts | 359° |
| 2026-05-06 20:30 | 32.74474 | -97.02716 | 3266 ft | 182 kts | 1° |
| 2026-05-06 20:30 | 32.75698 | -97.02707 | 3005 ft | 174 kts | 2° |
| 2026-05-06 20:31 | 32.76870 | -97.02697 | 2816 ft | 160 kts | 2° |
| 2026-05-06 20:31 | 32.77932 | -97.02691 | 2603 ft | 144 kts | 2° |
| 2026-05-06 20:31 | 32.78890 | -97.02683 | 2420 ft | 133 kts | 3° |
| 2026-05-06 20:31 | 32.79835 | -97.02668 | 2419 ft | 142 kts | 3° |
| 2026-05-06 20:32 | 32.80830 | -97.02644 | 2424 ft | 142 kts | 3° |
| 2026-05-06 20:32 | 32.81820 | -97.02607 | 2289 ft | 142 kts | 3° |
| 2026-05-06 20:32 | 32.82810 | -97.02622 | 2026 ft | 141 kts | 359° |
| 2026-05-06 20:32 | 32.83788 | -97.02646 | 1662 ft | 141 kts | 359° |
| 2026-05-06 20:33 | 32.84760 | -97.02639 | 1273 ft | 138 kts | 360° |
| 2026-05-06 20:33 | 32.85683 | -97.02647 | 1089 ft | 132 kts | 0° |
| 2026-05-06 20:33 | 32.86589 | -97.02630 | 923 ft | 128 kts | 1° |
| 2026-05-06 20:33 | 32.87488 | -97.02625 | 696 ft | 132 kts | 2° |
| 2026-05-06 20:34 | 32.88416 | -97.02617 | 580 ft | 125 kts | 1° |
| 2026-05-06 20:34 | 32.89111 | -97.02612 | 584 ft | 77 kts | 1° |
| 2026-05-06 20:34 | 32.89531 | -97.02609 | 572 ft | 43 kts | 1° |
| 2026-05-06 20:34 | 32.89760 | -97.02612 | 580 ft | 20 kts | 357° |
| 2026-05-06 20:35 | 32.89880 | -97.02641 | 576 ft | 12 kts | 329° |
| 2026-05-06 20:35 | 32.89955 | -97.02694 | 581 ft | 13 kts | 329° |
| 2026-05-06 20:35 | 32.90027 | -97.02744 | 583 ft | 12 kts | 329° |
| 2026-05-06 20:35 | 32.90081 | -97.02784 | 583 ft | 10 kts | 329° |
| 2026-05-06 20:36 | 32.90163 | -97.02801 | 581 ft | 15 kts | 1° |
| 2026-05-06 20:36 | 32.90278 | -97.02799 | 579 ft | 18 kts | 360° |
| 2026-05-06 20:36 | 32.90396 | -97.02799 | 581 ft | 17 kts | 0° |
| 2026-05-06 20:36 | 32.90466 | -97.02849 | 582 ft | 13 kts | 274° |
| 2026-05-06 20:37 | 32.90466 | -97.02988 | 577 ft | 20 kts | 270° |
| 2026-05-06 20:37 | 32.90467 | -97.03159 | 578 ft | 17 kts | 271° |
| 2026-05-06 20:37 | 32.90467 | -97.03275 | 587 ft | 8 kts | 262° |
| 2026-05-06 20:37 | 32.90428 | -97.03314 | 590 ft | 12 kts | 186° |
| 2026-05-06 20:38 | 32.90313 | -97.03311 | 590 ft | 19 kts | 182° |
| 2026-05-06 20:38 | 32.90167 | -97.03315 | 590 ft | 23 kts | 180° |
| 2026-05-06 20:38 | 32.90003 | -97.03316 | 591 ft | 22 kts | 179° |
| 2026-05-06 20:38 | 32.89848 | -97.03315 | 591 ft | 21 kts | 179° |
| 2026-05-06 20:39 | 32.89693 | -97.03318 | 591 ft | 24 kts | 180° |
| 2026-05-06 20:39 | 32.89540 | -97.03317 | 591 ft | 19 kts | 180° |
| 2026-05-06 20:39 | 32.89395 | -97.03317 | 590 ft | 22 kts | 180° |
| 2026-05-06 20:39 | 32.89257 | -97.03318 | 588 ft | 14 kts | 180° |
| 2026-05-06 20:40 | 32.89180 | -97.03349 | 589 ft | 12 kts | 227° |
| 2026-05-06 20:40 | 32.89151 | -97.03412 | 589 ft | 6 kts | 227° |
| 2026-05-06 20:40 | 32.89099 | -97.03442 | 589 ft | 10 kts | 214° |
| 2026-05-06 20:40 | 32.89084 | -97.03504 | 589 ft | 3 kts | 263° |
| 2026-05-06 20:41 | 32.89084 | -97.03508 | 589 ft | 0 kts | 262° |